createdAt,value
2018-09-26T00:01:39.137Z,11.00
2018-09-26T00:04:26.061Z,10.90
2018-09-26T00:06:58.605Z,10.90
2018-09-26T00:09:31.196Z,10.90
2018-09-26T00:11:59.751Z,10.90
2018-09-26T00:14:28.306Z,10.90
2018-09-26T00:16:56.814Z,10.90
2018-09-26T00:19:25.335Z,10.80
2018-09-26T00:21:53.877Z,10.80
2018-09-26T00:24:23.671Z,10.80
2018-09-26T00:26:52.263Z,10.80
2018-09-26T00:29:20.907Z,10.80
2018-09-26T00:31:49.852Z,10.80
2018-09-26T00:34:18.977Z,10.90
2018-09-26T00:36:48.877Z,10.90
2018-09-26T00:39:19.289Z,10.90
2018-09-26T00:41:47.910Z,10.90
2018-09-26T00:44:19.900Z,10.90
2018-09-26T00:46:48.445Z,10.90
2018-09-26T00:49:17.529Z,10.90
2018-09-26T00:51:46.062Z,10.90
2018-09-26T00:54:15.465Z,10.90
2018-09-26T00:56:44.330Z,10.90
2018-09-26T00:59:13.289Z,10.90
2018-09-26T01:02:01.121Z,10.90
2018-09-26T01:04:34.379Z,10.90
2018-09-26T01:07:20.735Z,10.90
2018-09-26T01:10:00.030Z,10.90
2018-09-26T01:12:31.808Z,10.90
2018-09-26T01:15:00.302Z,10.90
2018-09-26T01:17:30.642Z,11.00
2018-09-26T01:19:59.185Z,11.00
2018-09-26T01:22:27.779Z,11.00
2018-09-26T01:24:56.289Z,11.00
2018-09-26T01:27:24.815Z,10.90
2018-09-26T01:29:53.620Z,10.90
2018-09-26T01:32:22.153Z,10.90
2018-09-26T01:34:51.680Z,10.90
2018-09-26T01:37:20.186Z,10.80
2018-09-26T01:39:48.695Z,10.90
2018-09-26T01:42:17.203Z,10.80
2018-09-26T01:44:48.107Z,10.80
2018-09-26T01:47:16.909Z,10.80
2018-09-26T01:49:45.455Z,10.70
2018-09-26T01:52:13.973Z,10.70
2018-09-26T01:54:42.481Z,10.70
2018-09-26T01:57:11.441Z,10.70
2018-09-26T01:59:39.965Z,10.70
2018-09-26T02:02:08.490Z,10.70
2018-09-26T02:04:37.005Z,10.70
2018-09-26T02:07:05.520Z,10.70
2018-09-26T02:09:34.277Z,10.70
2018-09-26T02:12:03.874Z,10.70
2018-09-26T02:14:33.833Z,10.60
2018-09-26T02:17:03.557Z,10.60
2018-09-26T02:19:32.834Z,10.60
2018-09-26T02:22:01.431Z,10.60
2018-09-26T02:24:29.941Z,10.60
2018-09-26T02:26:59.826Z,10.60
2018-09-26T02:29:28.346Z,10.60
2018-09-26T02:31:57.909Z,10.60
2018-09-26T02:34:27.513Z,10.60
2018-09-26T02:36:56.854Z,10.60
2018-09-26T02:39:25.729Z,10.60
2018-09-26T02:41:54.670Z,10.60
2018-09-26T02:44:24.201Z,10.60
2018-09-26T02:46:53.579Z,10.60
2018-09-26T02:49:23.933Z,10.60
2018-09-26T02:51:53.447Z,10.60
2018-09-26T02:54:22.075Z,10.50
2018-09-26T02:56:50.589Z,10.50
2018-09-26T02:59:19.131Z,10.50
2018-09-26T03:01:47.642Z,10.50
2018-09-26T03:04:17.657Z,10.50
2018-09-26T03:06:49.741Z,10.50
2018-09-26T03:09:32.216Z,10.50
2018-09-26T03:12:12.669Z,10.40
2018-09-26T03:15:01.836Z,10.40
2018-09-26T03:17:33.446Z,10.40
2018-09-26T03:20:21.054Z,10.40
2018-09-26T03:25:49.646Z,10.40
2018-09-26T03:28:46.112Z,10.40
2018-09-26T03:31:37.707Z,10.40
2018-09-26T03:34:11.309Z,10.50
2018-09-26T03:36:48.330Z,10.50
2018-09-26T03:42:08.877Z,10.40
2018-09-26T03:44:40.648Z,10.30
2018-09-26T03:47:16.978Z,10.30
2018-09-26T03:49:49.384Z,10.30
2018-09-26T03:55:15.763Z,10.30
2018-09-26T03:57:53.844Z,10.30
2018-09-26T04:00:37.327Z,10.30
2018-09-26T04:03:10.313Z,10.30
2018-09-26T04:05:41.570Z,10.20
2018-09-26T04:08:15.785Z,10.20
2018-09-26T04:10:57.970Z,10.20
2018-09-26T04:13:39.533Z,10.20
2018-09-26T04:16:14.249Z,10.20
2018-09-26T04:18:56.073Z,10.20
2018-09-26T04:21:31.409Z,10.20
2018-09-26T04:24:06.414Z,10.20
2018-09-26T04:26:48.932Z,10.10
2018-09-26T04:29:21.867Z,10.20
2018-09-26T04:32:00.647Z,10.20
2018-09-26T04:34:30.330Z,10.20
2018-09-26T04:42:56.046Z,10.20
2018-09-26T04:45:37.635Z,10.30
2018-09-26T04:51:28.381Z,10.40
2018-09-26T04:54:18.298Z,10.40
2018-09-26T04:57:02.043Z,10.40
2018-09-26T04:59:40.933Z,10.50
2018-09-26T05:02:21.869Z,10.40
2018-09-26T05:05:06.752Z,10.40
2018-09-26T05:07:53.980Z,10.50
2018-09-26T05:10:49.713Z,10.50
2018-09-26T05:13:22.806Z,10.50
2018-09-26T05:15:54.612Z,10.50
2018-09-26T05:18:28.920Z,10.50
2018-09-26T05:21:16.952Z,10.50
2018-09-26T05:23:52.522Z,10.50
2018-09-26T05:26:28.450Z,10.50
2018-09-26T05:29:00.846Z,10.50
2018-09-26T05:31:36.576Z,10.50
2018-09-26T05:34:06.062Z,10.50
2018-09-26T05:36:51.676Z,10.50
2018-09-26T05:39:42.447Z,10.50
2018-09-26T05:42:24.891Z,10.40
2018-09-26T05:44:54.247Z,10.50
2018-09-26T05:47:35.799Z,10.50
2018-09-26T05:50:09.786Z,10.50
2018-09-26T05:52:43.491Z,10.40
2018-09-26T05:55:20.226Z,10.50
2018-09-26T05:57:58.432Z,10.50
2018-09-26T06:00:27.027Z,10.50
2018-09-26T06:03:14.534Z,10.50
2018-09-26T06:06:05.538Z,10.60
2018-09-26T06:08:46.845Z,10.60
2018-09-26T06:11:15.958Z,10.60
2018-09-26T06:13:46.409Z,10.60
2018-09-26T06:16:15.838Z,10.60
2018-09-26T06:18:44.631Z,10.60
2018-09-26T06:21:14.256Z,10.60
2018-09-26T06:23:42.790Z,10.60
2018-09-26T06:26:11.915Z,10.60
2018-09-26T06:28:40.456Z,10.60
2018-09-26T06:31:09.705Z,10.60
2018-09-26T06:33:39.552Z,10.60
2018-09-26T06:36:11.902Z,10.70
2018-09-26T06:38:40.932Z,10.70
2018-09-26T06:41:11.270Z,10.70
2018-09-26T06:43:40.706Z,10.70
2018-09-26T06:46:11.775Z,10.80
2018-09-26T06:48:41.356Z,10.80
2018-09-26T06:51:10.141Z,10.80
2018-09-26T06:53:47.709Z,10.90
2018-09-26T06:56:17.765Z,10.90
2018-09-26T06:58:47.896Z,11.00
2018-09-26T07:01:16.401Z,11.00
2018-09-26T07:03:44.914Z,11.10
2018-09-26T07:06:16.121Z,11.10
2018-09-26T07:08:45.281Z,11.30
2018-09-26T07:11:13.820Z,11.40
2018-09-26T07:13:43.655Z,11.50
2018-09-26T07:16:12.646Z,11.70
2018-09-26T07:18:41.174Z,11.90
2018-09-26T07:21:11.034Z,12.10
2018-09-26T07:23:39.537Z,12.20
2018-09-26T07:26:08.079Z,12.40
2018-09-26T07:28:37.210Z,12.50
2018-09-26T07:31:06.249Z,12.70
2018-09-26T07:33:36.492Z,12.70
2018-09-26T07:36:05.060Z,12.80
2018-09-26T07:38:34.244Z,12.90
2018-09-26T07:41:02.740Z,13.00
2018-09-26T07:43:32.341Z,13.10
2018-09-26T07:46:02.012Z,13.20
2018-09-26T07:48:30.559Z,13.40
2018-09-26T07:50:59.150Z,13.50
2018-09-26T07:53:27.898Z,13.60
2018-09-26T07:55:57.334Z,13.70
2018-09-26T07:58:25.873Z,13.80
2018-09-26T08:00:55.118Z,14.00
2018-09-26T08:03:24.674Z,14.10
2018-09-26T08:05:53.957Z,14.20
2018-09-26T08:08:24.554Z,14.20
2018-09-26T08:10:54.156Z,14.40
2018-09-26T08:16:11.225Z,14.70
2018-09-26T08:18:55.352Z,15.00
2018-09-26T08:21:30.461Z,15.20
2018-09-26T08:24:01.404Z,15.40
2018-09-26T08:26:57.134Z,15.60
2018-09-26T08:29:28.397Z,15.60
2018-09-26T08:31:57.805Z,15.70
2018-09-26T08:34:27.102Z,15.70
2018-09-26T08:36:55.619Z,15.80
2018-09-26T08:39:24.134Z,15.90
2018-09-26T08:41:52.674Z,15.90
2018-09-26T08:44:22.528Z,15.90
2018-09-26T08:46:51.961Z,15.90
2018-09-26T08:49:20.534Z,15.90
2018-09-26T08:51:50.185Z,15.90
2018-09-26T08:54:18.717Z,16.00
2018-09-26T08:56:48.729Z,16.10
2018-09-26T08:59:17.278Z,16.10
2018-09-26T09:01:47.042Z,16.20
2018-09-26T09:04:17.376Z,16.20
2018-09-26T09:06:47.179Z,16.30
2018-09-26T09:09:19.432Z,16.30
2018-09-26T09:11:50.583Z,16.30
2018-09-26T09:14:19.917Z,16.40
2018-09-26T09:16:48.456Z,16.50
2018-09-26T09:19:19.660Z,16.60
2018-09-26T09:21:49.581Z,16.70
2018-09-26T09:24:24.444Z,16.80
2018-09-26T09:26:52.978Z,16.80
2018-09-26T09:29:21.934Z,17.00
2018-09-26T09:31:50.451Z,17.30
2018-09-26T09:34:19.239Z,17.40
2018-09-26T09:36:48.787Z,17.60
2018-09-26T09:39:18.561Z,17.60
2018-09-26T09:41:47.717Z,17.60
2018-09-26T09:44:17.011Z,17.70
2018-09-26T09:46:45.680Z,17.70
2018-09-26T09:49:14.216Z,17.70
2018-09-26T09:51:43.136Z,17.80
2018-09-26T09:54:12.498Z,18.00
2018-09-26T09:56:41.325Z,18.00
2018-09-26T09:59:10.076Z,17.80
2018-09-26T10:01:38.634Z,17.70
2018-09-26T10:04:07.313Z,17.70
2018-09-26T10:06:37.390Z,17.80
2018-09-26T10:09:08.420Z,17.90
2018-09-26T10:11:37.601Z,17.90
2018-09-26T10:14:07.099Z,17.90
2018-09-26T10:16:35.678Z,17.90
2018-09-26T10:19:04.236Z,17.90
2018-09-26T10:21:33.661Z,18.00
2018-09-26T10:24:02.313Z,18.20
2018-09-26T10:26:30.846Z,18.30
2018-09-26T10:28:59.385Z,18.50
2018-09-26T10:31:28.443Z,18.70
2018-09-26T10:33:57.073Z,18.80
2018-09-26T10:36:25.592Z,18.80
2018-09-26T10:38:54.227Z,18.80
2018-09-26T10:41:25.760Z,18.80
2018-09-26T10:43:54.910Z,18.70
2018-09-26T10:46:26.265Z,18.80
2018-09-26T10:48:56.321Z,18.90
2018-09-26T10:51:24.854Z,18.90
2018-09-26T10:53:54.462Z,19.00
2018-09-26T10:56:24.547Z,19.00
2018-09-26T10:58:53.002Z,19.00
2018-09-26T11:01:21.993Z,19.20
2018-09-26T11:03:51.585Z,19.30
2018-09-26T11:06:23.838Z,19.30
2018-09-26T11:08:53.673Z,19.40
2018-09-26T11:11:22.763Z,19.50
2018-09-26T11:13:52.143Z,19.60
2018-09-26T11:16:20.705Z,19.80
2018-09-26T11:18:51.035Z,19.80
2018-09-26T11:21:19.682Z,19.90
2018-09-26T11:23:48.721Z,20.00
2018-09-26T11:26:17.371Z,20.10
2018-09-26T11:28:47.029Z,20.20
2018-09-26T11:31:15.842Z,20.40
2018-09-26T11:33:44.492Z,20.50
2018-09-26T11:36:14.030Z,20.70
2018-09-26T11:38:42.577Z,20.90
2018-09-26T11:41:11.618Z,21.20
2018-09-26T11:43:40.151Z,21.50
2018-09-26T11:46:08.833Z,21.80
2018-09-26T11:48:37.334Z,22.00
2018-09-26T11:51:06.332Z,22.30
2018-09-26T11:53:34.857Z,22.50
2018-09-26T11:56:03.524Z,22.40
2018-09-26T11:58:32.040Z,22.60
2018-09-26T12:01:00.577Z,22.80
2018-09-26T12:03:29.402Z,22.90
2018-09-26T12:05:58.734Z,23.10
2018-09-26T12:08:28.128Z,23.30
2018-09-26T12:10:56.617Z,23.40
2018-09-26T12:13:25.168Z,23.50
2018-09-26T12:15:55.662Z,23.60
2018-09-26T12:18:25.957Z,23.70
2018-09-26T12:20:54.487Z,23.70
2018-09-26T12:23:23.018Z,23.70
2018-09-26T12:25:51.561Z,23.80
2018-09-26T12:28:21.011Z,23.70
2018-09-26T12:30:50.100Z,23.70
2018-09-26T12:33:18.638Z,23.70
2018-09-26T12:35:47.177Z,23.90
2018-09-26T12:38:15.715Z,24.00
2018-09-26T12:40:44.334Z,24.00
2018-09-26T12:43:12.878Z,23.80
2018-09-26T12:45:41.410Z,23.70
2018-09-26T12:48:10.019Z,23.70
2018-09-26T12:50:38.489Z,23.70
2018-09-26T12:53:07.287Z,23.50
2018-09-26T12:55:36.198Z,23.30
2018-09-26T12:58:04.815Z,23.20
2018-09-26T13:00:35.315Z,23.20
2018-09-26T13:03:04.105Z,23.00
2018-09-26T13:05:32.644Z,22.60
2018-09-26T13:08:02.763Z,22.20
2018-09-26T13:10:31.446Z,21.70
2018-09-26T13:12:59.978Z,21.30
2018-09-26T13:15:28.599Z,21.10
2018-09-26T13:17:57.167Z,20.90
2018-09-26T13:20:26.913Z,20.60
2018-09-26T13:22:55.406Z,20.40
2018-09-26T13:25:24.013Z,20.30
2018-09-26T13:27:53.915Z,20.20
2018-09-26T13:30:22.573Z,20.30
2018-09-26T13:32:51.107Z,20.20
2018-09-26T13:35:20.204Z,20.10
2018-09-26T13:37:48.734Z,19.90
2018-09-26T13:40:17.476Z,19.80
2018-09-26T13:42:46.053Z,19.70
2018-09-26T13:45:16.332Z,19.50
2018-09-26T13:47:45.493Z,19.40
2018-09-26T13:50:14.021Z,19.40
2018-09-26T13:52:42.590Z,19.30
2018-09-26T13:55:11.154Z,19.30
2018-09-26T13:57:39.999Z,19.30
2018-09-26T14:00:08.621Z,19.30
2018-09-26T14:02:37.406Z,19.30
2018-09-26T14:05:06.571Z,19.30
2018-09-26T14:07:35.102Z,19.20
2018-09-26T14:10:03.965Z,19.20
2018-09-26T14:12:32.543Z,19.20
2018-09-26T14:15:04.005Z,19.30
2018-09-26T14:17:32.938Z,19.30
2018-09-26T14:20:01.486Z,19.30
2018-09-26T14:22:30.051Z,19.30
2018-09-26T14:24:58.576Z,19.20
2018-09-26T14:27:27.097Z,19.20
2018-09-26T14:29:55.627Z,19.10
2018-09-26T14:32:24.345Z,19.10
2018-09-26T14:34:52.750Z,19.00
2018-09-26T14:37:21.298Z,19.00
2018-09-26T14:39:50.596Z,19.00
2018-09-26T14:42:19.129Z,18.90
2018-09-26T14:44:47.667Z,18.90
2018-09-26T14:47:16.260Z,18.90
2018-09-26T14:49:48.608Z,18.80
2018-09-26T14:52:17.972Z,18.80
2018-09-26T14:54:46.494Z,18.80
2018-09-26T14:57:15.130Z,18.70
2018-09-26T14:59:44.087Z,18.70
2018-09-26T15:02:12.675Z,18.70
2018-09-26T15:04:42.025Z,18.70
2018-09-26T15:07:10.641Z,18.60
2018-09-26T15:09:39.223Z,18.60
2018-09-26T15:12:12.517Z,18.60
2018-09-26T15:14:47.773Z,18.50
2018-09-26T15:17:20.606Z,18.50
2018-09-26T15:19:50.298Z,18.50
2018-09-26T15:22:26.114Z,18.50
2018-09-26T15:25:01.809Z,18.50
2018-09-26T15:27:36.139Z,18.50
2018-09-26T15:30:14.002Z,18.50
2018-09-26T15:32:42.469Z,18.50
2018-09-26T15:35:11.730Z,18.50
2018-09-26T15:37:40.246Z,18.50
2018-09-26T15:40:08.895Z,18.50
2018-09-26T15:42:38.428Z,18.50
2018-09-26T15:45:07.207Z,18.50
2018-09-26T15:47:36.382Z,18.40
2018-09-26T15:50:05.038Z,18.40
2018-09-26T15:52:33.611Z,18.40
2018-09-26T15:55:09.227Z,18.40
2018-09-26T15:57:38.446Z,18.30
2018-09-26T16:00:07.709Z,18.30
2018-09-26T16:02:40.256Z,18.30
2018-09-26T16:05:12.993Z,18.30
2018-09-26T16:07:54.820Z,18.20
2018-09-26T16:10:27.361Z,18.20
2018-09-26T16:12:55.917Z,18.20
2018-09-26T16:15:24.425Z,18.10
2018-09-26T16:17:53.194Z,18.10
2018-09-26T16:20:21.746Z,18.10
2018-09-26T16:22:50.273Z,18.10
2018-09-26T16:25:18.869Z,18.10
2018-09-26T16:27:47.418Z,18.00
2018-09-26T16:30:15.996Z,17.90
2018-09-26T16:32:44.561Z,17.90
2018-09-26T16:35:13.090Z,17.90
2018-09-26T16:37:41.752Z,17.90
2018-09-26T16:40:22.715Z,17.90
2018-09-26T16:43:03.731Z,17.90
2018-09-26T16:45:35.294Z,17.80
2018-09-26T16:48:04.677Z,17.80
2018-09-26T16:50:43.275Z,17.70
2018-09-26T16:53:11.840Z,17.70
2018-09-26T16:55:40.431Z,17.70
2018-09-26T16:58:09.081Z,17.60
2018-09-26T17:00:37.566Z,17.60
2018-09-26T17:03:06.140Z,17.60
2018-09-26T17:05:34.709Z,17.50
2018-09-26T17:08:03.368Z,17.50
2018-09-26T17:10:31.917Z,17.40
2018-09-26T17:13:00.646Z,17.40
2018-09-26T17:15:29.170Z,17.40
2018-09-26T17:17:57.674Z,17.30
2018-09-26T17:20:27.874Z,17.30
2018-09-26T17:22:58.142Z,17.30
2018-09-26T17:25:42.068Z,17.30
2018-09-26T17:28:11.872Z,17.20
2018-09-26T17:30:40.910Z,17.20
2018-09-26T17:33:09.468Z,17.10
2018-09-26T17:35:38.011Z,17.00
2018-09-26T17:38:07.352Z,17.00
2018-09-26T17:40:35.912Z,17.00
2018-09-26T17:43:07.883Z,16.90
2018-09-26T17:45:47.033Z,16.90
2018-09-26T17:48:25.053Z,16.80
2018-09-26T17:50:56.877Z,16.80
2018-09-26T17:53:25.414Z,16.70
2018-09-26T17:55:56.361Z,16.70
2018-09-26T17:58:33.428Z,16.70
2018-09-26T18:01:02.626Z,16.60
2018-09-26T18:03:31.196Z,16.60
2018-09-26T18:06:00.926Z,16.50
2018-09-26T18:08:29.478Z,16.50
2018-09-26T18:10:58.861Z,16.40
2018-09-26T18:13:27.449Z,16.40
2018-09-26T18:15:55.993Z,16.40
2018-09-26T18:18:24.550Z,16.30
2018-09-26T18:20:53.081Z,16.30
2018-09-26T18:23:21.672Z,16.30
2018-09-26T18:25:50.499Z,16.20
2018-09-26T18:28:19.635Z,16.10
2018-09-26T18:30:48.185Z,16.10
2018-09-26T18:33:16.799Z,16.10
2018-09-26T18:35:45.604Z,16.00
2018-09-26T18:38:14.190Z,16.00
2018-09-26T18:40:42.793Z,16.00
2018-09-26T18:43:11.436Z,16.00
2018-09-26T18:45:39.976Z,16.00
2018-09-26T18:48:08.718Z,15.90
2018-09-26T18:50:37.313Z,15.90
2018-09-26T18:53:06.043Z,15.90
2018-09-26T18:55:34.633Z,15.90
2018-09-26T18:58:03.200Z,15.90
2018-09-26T19:00:31.803Z,15.80
2018-09-26T19:03:00.423Z,15.80
2018-09-26T19:05:28.898Z,15.80
2018-09-26T19:07:57.447Z,15.80
2018-09-26T19:10:25.968Z,15.80
2018-09-26T19:12:54.491Z,15.80
2018-09-26T19:15:23.015Z,15.80
2018-09-26T19:17:51.554Z,15.70
2018-09-26T19:20:20.166Z,15.70
2018-09-26T19:22:48.694Z,15.70
2018-09-26T19:25:17.255Z,15.70
2018-09-26T19:27:48.464Z,15.70
2018-09-26T19:30:26.118Z,15.70
2018-09-26T19:32:54.785Z,15.60
2018-09-26T19:35:23.278Z,15.60
2018-09-26T19:37:52.858Z,15.60
2018-09-26T19:40:21.425Z,15.50
2018-09-26T19:42:49.994Z,15.50
2018-09-26T19:45:18.874Z,15.50
2018-09-26T19:47:47.425Z,15.40
2018-09-26T19:50:15.966Z,15.40
2018-09-26T19:52:44.518Z,15.40
2018-09-26T19:55:13.102Z,15.40
2018-09-26T19:57:41.642Z,15.40
2018-09-26T20:00:10.894Z,15.40
2018-09-26T20:02:39.629Z,15.40
2018-09-26T20:05:09.057Z,15.40
2018-09-26T20:07:38.539Z,15.30
2018-09-26T20:10:15.208Z,15.30
2018-09-26T20:12:45.037Z,15.30
2018-09-26T20:15:18.614Z,15.30
2018-09-26T20:17:48.152Z,15.30
2018-09-26T20:20:16.656Z,15.30
2018-09-26T20:22:45.218Z,15.30
2018-09-26T20:25:13.784Z,15.30
2018-09-26T20:27:42.873Z,15.30
2018-09-26T20:30:12.212Z,15.30
2018-09-26T20:32:41.125Z,15.30
2018-09-26T20:35:10.101Z,15.30
2018-09-26T20:37:38.836Z,15.30
2018-09-26T20:40:07.587Z,15.30
2018-09-26T20:42:36.222Z,15.30
2018-09-26T20:45:05.019Z,15.20
2018-09-26T20:47:33.550Z,15.20
2018-09-26T20:50:02.330Z,15.20
2018-09-26T20:52:30.857Z,15.20
2018-09-26T20:54:59.410Z,15.20
2018-09-26T20:57:27.949Z,15.20
2018-09-26T20:59:56.474Z,15.20
2018-09-26T21:02:25.074Z,15.30
2018-09-26T21:04:53.628Z,15.30
2018-09-26T21:07:22.280Z,15.20
2018-09-26T21:09:50.821Z,15.20
2018-09-26T21:12:19.346Z,15.20
2018-09-26T21:14:47.879Z,15.20
2018-09-26T21:17:16.417Z,15.20
2018-09-26T21:19:44.970Z,15.10
2018-09-26T21:22:13.479Z,15.10
2018-09-26T21:24:42.026Z,15.10
2018-09-26T21:27:10.563Z,15.00
2018-09-26T21:29:39.101Z,15.10
2018-09-26T21:32:07.739Z,15.00
2018-09-26T21:34:36.324Z,15.00
2018-09-26T21:37:05.229Z,15.00
2018-09-26T21:39:33.768Z,15.00
2018-09-26T21:42:02.306Z,15.00
2018-09-26T21:44:30.870Z,15.00
2018-09-26T21:46:59.573Z,15.00
2018-09-26T21:49:28.086Z,15.00
2018-09-26T21:51:56.618Z,14.90
2018-09-26T21:54:25.129Z,14.90
2018-09-26T21:56:53.685Z,14.90
2018-09-26T21:59:22.227Z,14.90
2018-09-26T22:01:50.756Z,14.90
2018-09-26T22:04:19.272Z,14.90
2018-09-26T22:06:47.780Z,14.90
2018-09-26T22:09:16.358Z,14.80
2018-09-26T22:11:44.902Z,14.80
2018-09-26T22:14:13.490Z,14.80
2018-09-26T22:16:42.025Z,14.80
2018-09-26T22:19:10.549Z,14.80
2018-09-26T22:21:39.113Z,14.80
2018-09-26T22:24:07.753Z,14.80
2018-09-26T22:26:36.314Z,14.80
2018-09-26T22:29:04.906Z,14.70
2018-09-26T22:31:33.437Z,14.70
2018-09-26T22:34:02.007Z,14.70
2018-09-26T22:36:30.605Z,14.70
2018-09-26T22:38:59.696Z,14.70
2018-09-26T22:41:28.210Z,14.70
2018-09-26T22:43:56.753Z,14.70
2018-09-26T22:46:25.301Z,14.70
2018-09-26T22:48:53.851Z,14.70
2018-09-26T22:51:22.380Z,14.60
2018-09-26T22:53:50.906Z,14.60
2018-09-26T22:56:19.441Z,14.60
2018-09-26T22:58:47.989Z,14.60
2018-09-26T23:01:16.505Z,14.60
2018-09-26T23:03:45.072Z,14.60
2018-09-26T23:06:13.591Z,14.60
2018-09-26T23:08:42.173Z,14.60
2018-09-26T23:11:10.714Z,14.60
2018-09-26T23:13:39.234Z,14.60
2018-09-26T23:16:07.869Z,14.60
2018-09-26T23:18:36.385Z,14.60
2018-09-26T23:21:04.890Z,14.60
2018-09-26T23:23:33.441Z,14.60
2018-09-26T23:26:01.950Z,14.60
2018-09-26T23:28:30.515Z,14.60
2018-09-26T23:30:59.706Z,14.60
2018-09-26T23:33:28.251Z,14.60
2018-09-26T23:35:56.805Z,14.50
2018-09-26T23:38:25.341Z,14.60
2018-09-26T23:40:53.898Z,14.50
2018-09-26T23:43:22.425Z,14.50
2018-09-26T23:45:50.957Z,14.50
2018-09-26T23:48:19.503Z,14.60
2018-09-26T23:50:48.018Z,14.50
2018-09-26T23:53:16.549Z,14.50
2018-09-26T23:55:45.134Z,14.50
2018-09-26T23:58:13.695Z,14.50
